»·PEaware :: N360BG KSBA-KSFO

N360BG :: KSBA-KSFO

FLIGHT INFORMATION

Flight Status: Arrived
Operator: Privately registered:
United States
More flights under this callsign
Pilot: Brandon G. (13)
Aircraft: BOEING 737-200
(B732)
More flights by this aircraft type
Origin: KSBA Santa Barbara Mun
United States
Destination: KSFO San Francisco Intl
United States
More flights between these airports :: More routes between these airports
Route: GAUCH1 MQO SERFR SERFR3
File this flight plan on PilotEdge
Remarks:
Altitude:
(Current/Filed)
30,000ft
Speed:
(Current/Filed)
385kts
Departed: 30-Sep-18 04:25 PM
Arrived: 30-Sep-18 05:08 PM
Distance/Time
Traveled:
228nm/0:43
Distance/Time
To Go:
Arrived

Flight Plot

Page will automatically refresh every two minutes.

Flight plan parsing failed; only flown route is shown


Map Options




Map Legend


Flown Route
Filed Route
Departure Airport
Arrival Airport
Navaid (VOR, NDB)
Fix

Horizontal Profiles

Position Reports

Time Latitude Longitude Heading Altitude Ground
Speed
30-Sep-18 16:14 34.432544 -119.835180 71 19ft 0kts
30-Sep-18 16:15 34.432544 -119.835180 71 19ft 0kts
30-Sep-18 16:16 34.432544 -119.835180 71 19ft 0kts
30-Sep-18 16:17 34.432544 -119.835180 71 19ft 0kts
30-Sep-18 16:18 34.432544 -119.835180 71 19ft 0kts
30-Sep-18 16:19 34.432544 -119.835180 71 19ft 0kts
30-Sep-18 16:20 34.432544 -119.835180 71 19ft 0kts
30-Sep-18 16:21 34.432544 -119.835180 71 19ft 0kts
30-Sep-18 16:22 34.432504 -119.835027 146 19ft 4kts
30-Sep-18 16:23 34.428971 -119.834782 140 15ft 5kts
30-Sep-18 16:24 34.428945 -119.834758 143 15ft 0kts
30-Sep-18 16:25 34.428945 -119.834758 143 15ft 0kts
30-Sep-18 16:26 34.427892 -119.835354 267 15ft 0kts
30-Sep-18 16:27 34.427135 -119.868092 268 1228ft 180kts
30-Sep-18 16:28 34.425801 -119.936777 268 3522ft 260kts
30-Sep-18 16:29 34.424274 -120.023378 266 7882ft 257kts
30-Sep-18 16:30 34.422537 -120.111767 266 8001ft 266kts
30-Sep-18 16:31 34.455825 -120.188154 325 11093ft 303kts
30-Sep-18 16:32 34.533540 -120.237550 330 13772ft 344kts
30-Sep-18 16:33 34.617449 -120.300869 318 16315ft 365kts
30-Sep-18 16:34 34.698742 -120.376788 317 18833ft 378kts
30-Sep-18 16:35 34.788841 -120.446315 326 21025ft 394kts
30-Sep-18 16:36 34.885404 -120.511527 326 22898ft 405kts
30-Sep-18 16:37 34.984021 -120.577968 325 24583ft 413kts
30-Sep-18 16:38 35.084681 -120.645958 325 26030ft 420kts
30-Sep-18 16:39 35.184101 -120.713296 324 27257ft 426kts
30-Sep-18 16:40 35.287504 -120.785441 322 28353ft 431kts
30-Sep-18 16:41 35.389942 -120.860646 322 29302ft 436kts
30-Sep-18 16:42 35.494276 -120.937530 322 29918ft 447kts
30-Sep-18 16:43 35.602082 -121.017229 322 29913ft 467kts
30-Sep-18 16:44 35.714683 -121.100702 323 29912ft 481kts
30-Sep-18 16:45 35.829515 -121.186101 323 29907ft 483kts
30-Sep-18 16:46 35.943517 -121.271181 323 29914ft 479kts
30-Sep-18 16:47 36.056282 -121.355642 323 29935ft 476kts
30-Sep-18 16:48 36.159829 -121.435962 322 29668ft 461kts
30-Sep-18 16:49 36.266277 -121.519220 323 26513ft 450kts
30-Sep-18 16:50 36.368089 -121.598971 323 24739ft 409kts
30-Sep-18 16:51 36.462296 -121.673163 322 22094ft 397kts
30-Sep-18 16:52 36.553228 -121.744945 323 19612ft 383kts
30-Sep-18 16:53 36.641360 -121.814722 324 17212ft 370kts
30-Sep-18 16:54 36.725905 -121.881769 326 15036ft 354kts
30-Sep-18 16:55 36.818633 -121.915116 345 12820ft 353kts
30-Sep-18 16:56 36.912296 -121.941811 345 11214ft 341kts
30-Sep-18 16:57 37.000716 -121.972086 340 9692ft 331kts
30-Sep-18 16:58 37.086966 -122.005744 340 8451ft 321kts
30-Sep-18 16:59 37.166390 -122.036787 340 7991ft 305kts
30-Sep-18 17:00 37.241590 -122.066237 340 7995ft 272kts
30-Sep-18 17:01 37.312224 -122.094028 340 7100ft 265kts
30-Sep-18 17:02 37.381326 -122.120844 342 5784ft 257kts
30-Sep-18 17:03 37.449232 -122.144190 342 4485ft 250kts
30-Sep-18 17:04 37.515068 -122.165932 342 3403ft 235kts
30-Sep-18 17:05 37.553707 -122.217061 299 2383ft 197kts
30-Sep-18 17:06 37.576906 -122.269958 296 1543ft 150kts
30-Sep-18 17:07 37.594421 -122.311564 295 830ft 130kts
30-Sep-18 17:08 37.610652 -122.350258 295 186ft 125kts
30-Sep-18 17:09 37.622457 -122.378288 304 27ft 45kts
30-Sep-18 17:10 37.626956 -122.382683 28 18ft 19kts

Navigation Log

Ident Type
Flight plan parsing failed, navigation log unavailable